Kingsland, AR

11:54 PM CDT on July 23, 2014 (GMT -0500)
Monticello Municipal-Ellis (KLLQ) Elev 269 ft | 33.64 °N, 91.76 °W | Change Station

Current weather conditions updated 40 minutes ago

Scattered Clouds
Scattered Clouds
72 °F
Feels Like 72 °F
N
0
Wind Variable Wind from North

Tomorrow is forecast to be nearly the same temperature as today.

Today
High -- | Low -- °F
--% Chance of Precip.
Yesterday
High -- | Low -- °F
Precip. -- in
6:14 AM 8:16 PM
Waning Crescent, 7% visible
Pressure 30.00 in
Visibility 10.0 miles
Clouds Scattered Clouds 800 ft
Dew Point 68 °F
Humidity 87%
Rainfall 0.00 in
Snow Depth Not available.
UV 0 out of 12
Pollen 3.80 out of 12
Air Quality Not available.
Flu Activity Not available.
SPECI KLLQ 240414Z AUTO 00000KT 10SM SCT008 22/20 A3000 RMK AO2 T02220200

More Conditions Fewer Conditions

Pressure 30.00 in
Visibility 10.0 miles
Clouds Scattered Clouds 800 ft
Dew Point 68 °F
Humidity 87%
Rainfall 0.00 in
Snow Depth Not available.
UV 0 out of 12
Pollen 3.80 out of 12
Air Quality Not available.
Flu Activity Not available.
SPECI KLLQ 240414Z AUTO 00000KT 10SM SCT008 22/20 A3000 RMK AO2 T02220200

More Conditions Fewer Conditions

10-Day Weather Forecast

Almanac

Astronomy

Jul. 23, 2014 Rise Set
Actual Time 6:14 AM CDT 8:16 PM CDT
Civil Twilight 5:46 AM CDT 8:44 PM CDT
Nautical Twilight 5:12 AM CDT 9:18 PM CDT
Astronomical Twilight 4:36 AM CDT 9:54 PM CDT
Moon 3:32 AM CDT (7/23) 5:46 PM CDT (7/23)
Length of Visible Light 14h 57m
Length of Day
14h 01m
Tomorrow will be 1m 20s shorter.
Waning Crescent, 7% of the Moon is Illuminated
Jul 24
Waning Crescent
Jul 26
New
Aug 3
First Quarter
Aug 10
Full
Aug 17
Last Quarter

Yesterday's Extremes

State Highs State Lows

Community

WunderPhotos

Upload Photos

1,736,912 photos uploaded!

Nearby

Snow Depth

Station Depth Elevation
No new snow has been reported.

Earthquake Activity

City Distance Mag. Time & Date
No recent earthquake activity has been reported nearby.
Minimum magnitude displayed is 2.5.

Coastal Water Temperatures

Place Temperature
No Stations Reporting

Nearby Weather Stations

Station Location Temp. Dew Point Humidity Wind Precip. Elev Updated Type
MesoWest SALINE , Fordyce, AR 72 °F - - North  at  - 0.00 in / hr 198 ft 10:40 PM CDT MADIS
MesoWest THRNTN , Thornton, AR 68 °F - - North  at  - 0.00 in / hr 303 ft 7:55 PM CDT MADIS

Show More Stations Show Fewer Stations